sensor_id;sensor_type;location;lat;lon;timestamp;P1;durP1;ratioP1;P2;durP2;ratioP2
48613;SDS011;34408;51.426;5.444;2022-07-06T00:00:06;5.32;;;2.17;;
48613;SDS011;34408;51.426;5.444;2022-07-06T00:02:36;3.33;;;1.52;;
48613;SDS011;34408;51.426;5.444;2022-07-06T00:05:04;9.23;;;2.08;;
48613;SDS011;34408;51.426;5.444;2022-07-06T00:07:32;4.32;;;1.90;;
48613;SDS011;34408;51.426;5.444;2022-07-06T00:10:00;2.88;;;1.52;;
48613;SDS011;34408;51.426;5.444;2022-07-06T00:12:28;1.92;;;1.38;;
48613;SDS011;34408;51.426;5.444;2022-07-06T00:14:56;2.88;;;1.65;;
48613;SDS011;34408;51.426;5.444;2022-07-06T00:17:25;2.83;;;1.75;;
48613;SDS011;34408;51.426;5.444;2022-07-06T00:19:53;3.28;;;1.60;;
48613;SDS011;34408;51.426;5.444;2022-07-06T00:22:21;3.15;;;1.75;;
48613;SDS011;34408;51.426;5.444;2022-07-06T00:24:48;4.85;;;1.70;;
48613;SDS011;34408;51.426;5.444;2022-07-06T00:27:16;3.58;;;1.30;;
48613;SDS011;34408;51.426;5.444;2022-07-06T00:29:44;3.33;;;1.77;;
48613;SDS011;34408;51.426;5.444;2022-07-06T00:32:12;2.88;;;1.60;;
48613;SDS011;34408;51.426;5.444;2022-07-06T00:34:41;3.50;;;1.63;;
48613;SDS011;34408;51.426;5.444;2022-07-06T00:37:09;3.10;;;1.45;;
48613;SDS011;34408;51.426;5.444;2022-07-06T00:39:37;2.00;;;1.58;;
48613;SDS011;34408;51.426;5.444;2022-07-06T00:42:05;7.65;;;1.95;;
48613;SDS011;34408;51.426;5.444;2022-07-06T00:44:33;3.13;;;1.65;;
48613;SDS011;34408;51.426;5.444;2022-07-06T00:47:01;5.78;;;1.67;;
48613;SDS011;34408;51.426;5.444;2022-07-06T00:49:28;2.47;;;1.50;;
48613;SDS011;34408;51.426;5.444;2022-07-06T00:52:15;4.72;;;2.33;;
48613;SDS011;34408;51.426;5.444;2022-07-06T00:54:43;3.63;;;1.73;;
48613;SDS011;34408;51.426;5.444;2022-07-06T00:57:11;3.28;;;1.30;;
48613;SDS011;34408;51.426;5.444;2022-07-06T00:59:39;4.53;;;2.05;;
48613;SDS011;34408;51.426;5.444;2022-07-06T01:02:07;5.90;;;2.28;;
48613;SDS011;34408;51.426;5.444;2022-07-06T01:04:35;4.82;;;1.58;;
48613;SDS011;34408;51.426;5.444;2022-07-06T01:07:03;2.60;;;1.55;;
48613;SDS011;34408;51.426;5.444;2022-07-06T01:09:32;4.00;;;1.85;;
48613;SDS011;34408;51.426;5.444;2022-07-06T01:12:00;6.25;;;2.15;;
48613;SDS011;34408;51.426;5.444;2022-07-06T01:14:27;1.92;;;1.48;;
48613;SDS011;34408;51.426;5.444;2022-07-06T01:16:55;3.33;;;2.20;;
48613;SDS011;34408;51.426;5.444;2022-07-06T01:19:24;4.50;;;2.00;;
48613;SDS011;34408;51.426;5.444;2022-07-06T01:21:53;4.45;;;1.73;;
48613;SDS011;34408;51.426;5.444;2022-07-06T01:24:21;5.03;;;1.98;;
48613;SDS011;34408;51.426;5.444;2022-07-06T01:26:48;1.77;;;1.33;;
48613;SDS011;34408;51.426;5.444;2022-07-06T01:29:16;4.85;;;1.98;;
48613;SDS011;34408;51.426;5.444;2022-07-06T01:31:45;3.95;;;2.42;;
48613;SDS011;34408;51.426;5.444;2022-07-06T01:34:15;4.32;;;2.00;;
48613;SDS011;34408;51.426;5.444;2022-07-06T01:36:44;5.78;;;2.47;;
48613;SDS011;34408;51.426;5.444;2022-07-06T01:39:13;2.53;;;1.90;;
48613;SDS011;34408;51.426;5.444;2022-07-06T01:41:41;5.13;;;2.20;;
48613;SDS011;34408;51.426;5.444;2022-07-06T01:44:09;2.40;;;1.60;;
48613;SDS011;34408;51.426;5.444;2022-07-06T01:46:37;3.03;;;2.10;;
48613;SDS011;34408;51.426;5.444;2022-07-06T01:49:05;3.05;;;2.03;;
48613;SDS011;34408;51.426;5.444;2022-07-06T01:51:32;3.15;;;1.70;;
48613;SDS011;34408;51.426;5.444;2022-07-06T01:54:00;4.80;;;2.13;;
48613;SDS011;34408;51.426;5.444;2022-07-06T01:56:29;5.07;;;2.28;;
48613;SDS011;34408;51.426;5.444;2022-07-06T01:58:57;2.75;;;2.15;;
48613;SDS011;34408;51.426;5.444;2022-07-06T02:01:25;4.10;;;2.47;;
48613;SDS011;34408;51.426;5.444;2022-07-06T02:03:53;5.25;;;2.00;;
48613;SDS011;34408;51.426;5.444;2022-07-06T02:06:20;5.40;;;2.42;;
48613;SDS011;34408;51.426;5.444;2022-07-06T02:08:48;3.30;;;2.05;;
48613;SDS011;34408;51.426;5.444;2022-07-06T02:11:17;4.82;;;2.33;;
48613;SDS011;34408;51.426;5.444;2022-07-06T02:13:46;7.95;;;3.22;;
48613;SDS011;34408;51.426;5.444;2022-07-06T02:16:14;4.18;;;2.25;;
48613;SDS011;34408;51.426;5.444;2022-07-06T02:18:42;7.35;;;2.38;;
48613;SDS011;34408;51.426;5.444;2022-07-06T02:21:10;3.78;;;2.15;;
48613;SDS011;34408;51.426;5.444;2022-07-06T02:23:38;3.85;;;1.88;;
48613;SDS011;34408;51.426;5.444;2022-07-06T02:26:06;7.15;;;2.30;;
48613;SDS011;34408;51.426;5.444;2022-07-06T02:28:34;5.55;;;2.20;;
48613;SDS011;34408;51.426;5.444;2022-07-06T02:31:03;3.40;;;2.25;;
48613;SDS011;34408;51.426;5.444;2022-07-06T02:33:30;5.30;;;2.67;;
48613;SDS011;34408;51.426;5.444;2022-07-06T02:35:58;3.20;;;2.25;;
48613;SDS011;34408;51.426;5.444;2022-07-06T02:38:26;8.35;;;2.72;;
48613;SDS011;34408;51.426;5.444;2022-07-06T02:40:54;5.97;;;2.42;;
48613;SDS011;34408;51.426;5.444;2022-07-06T02:43:21;3.30;;;2.20;;
48613;SDS011;34408;51.426;5.444;2022-07-06T02:45:49;7.35;;;2.50;;
48613;SDS011;34408;51.426;5.444;2022-07-06T02:48:18;4.18;;;2.60;;
48613;SDS011;34408;51.426;5.444;2022-07-06T02:50:48;5.85;;;2.70;;
48613;SDS011;34408;51.426;5.444;2022-07-06T02:53:17;6.72;;;2.63;;
48613;SDS011;34408;51.426;5.444;2022-07-06T02:55:45;4.15;;;2.15;;
48613;SDS011;34408;51.426;5.444;2022-07-06T02:58:12;4.13;;;2.60;;
48613;SDS011;34408;51.426;5.444;2022-07-06T03:00:40;4.30;;;2.28;;
48613;SDS011;34408;51.426;5.444;2022-07-06T03:03:08;4.28;;;2.17;;
48613;SDS011;34408;51.426;5.444;2022-07-06T03:05:38;4.20;;;2.13;;
48613;SDS011;34408;51.426;5.444;2022-07-06T03:08:05;3.30;;;2.08;;
48613;SDS011;34408;51.426;5.444;2022-07-06T03:10:33;3.53;;;2.03;;
48613;SDS011;34408;51.426;5.444;2022-07-06T03:13:01;7.28;;;2.42;;
48613;SDS011;34408;51.426;5.444;2022-07-06T03:15:29;5.75;;;2.60;;
48613;SDS011;34408;51.426;5.444;2022-07-06T03:17:56;3.80;;;1.83;;
48613;SDS011;34408;51.426;5.444;2022-07-06T03:20:24;4.68;;;2.33;;
48613;SDS011;34408;51.426;5.444;2022-07-06T03:22:53;3.88;;;1.98;;
48613;SDS011;34408;51.426;5.444;2022-07-06T03:25:21;5.63;;;2.50;;
48613;SDS011;34408;51.426;5.444;2022-07-06T03:27:49;4.13;;;2.13;;
48613;SDS011;34408;51.426;5.444;2022-07-06T03:30:17;4.35;;;1.95;;
48613;SDS011;34408;51.426;5.444;2022-07-06T03:32:45;6.65;;;2.67;;
48613;SDS011;34408;51.426;5.444;2022-07-06T03:35:12;4.03;;;2.05;;
48613;SDS011;34408;51.426;5.444;2022-07-06T03:37:40;4.13;;;2.47;;
48613;SDS011;34408;51.426;5.444;2022-07-06T03:40:10;5.25;;;2.15;;
48613;SDS011;34408;51.426;5.444;2022-07-06T03:42:38;4.28;;;2.20;;
48613;SDS011;34408;51.426;5.444;2022-07-06T03:45:07;7.78;;;2.92;;
48613;SDS011;34408;51.426;5.444;2022-07-06T03:47:36;4.15;;;2.20;;
48613;SDS011;34408;51.426;5.444;2022-07-06T03:50:04;6.20;;;2.47;;
48613;SDS011;34408;51.426;5.444;2022-07-06T03:52:33;5.05;;;2.30;;
48613;SDS011;34408;51.426;5.444;2022-07-06T03:55:02;5.13;;;2.22;;
48613;SDS011;34408;51.426;5.444;2022-07-06T03:57:31;4.13;;;2.10;;
48613;SDS011;34408;51.426;5.444;2022-07-06T03:59:59;4.47;;;2.15;;
48613;SDS011;34408;51.426;5.444;2022-07-06T04:02:26;2.90;;;1.88;;
48613;SDS011;34408;51.426;5.444;2022-07-06T04:04:54;4.85;;;3.00;;
48613;SDS011;34408;51.426;5.444;2022-07-06T04:07:22;5.32;;;2.15;;
48613;SDS011;34408;51.426;5.444;2022-07-06T04:09:50;3.42;;;2.10;;
48613;SDS011;34408;51.426;5.444;2022-07-06T04:12:18;3.85;;;2.08;;
48613;SDS011;34408;51.426;5.444;2022-07-06T04:14:47;4.28;;;1.95;;
48613;SDS011;34408;51.426;5.444;2022-07-06T04:17:15;2.72;;;2.00;;
48613;SDS011;34408;51.426;5.444;2022-07-06T04:20:00;3.03;;;1.98;;
48613;SDS011;34408;51.426;5.444;2022-07-06T04:22:28;5.30;;;2.65;;
48613;SDS011;34408;51.426;5.444;2022-07-06T04:24:56;5.15;;;1.90;;
48613;SDS011;34408;51.426;5.444;2022-07-06T04:27:23;3.33;;;1.90;;
48613;SDS011;34408;51.426;5.444;2022-07-06T04:29:53;3.45;;;2.00;;
48613;SDS011;34408;51.426;5.444;2022-07-06T04:32:21;4.75;;;2.40;;
48613;SDS011;34408;51.426;5.444;2022-07-06T04:34:51;6.30;;;2.38;;
48613;SDS011;34408;51.426;5.444;2022-07-06T04:37:19;3.80;;;1.85;;
48613;SDS011;34408;51.426;5.444;2022-07-06T04:39:47;4.18;;;2.22;;
48613;SDS011;34408;51.426;5.444;2022-07-06T04:42:15;2.30;;;1.45;;
48613;SDS011;34408;51.426;5.444;2022-07-06T04:44:42;3.45;;;1.85;;
48613;SDS011;34408;51.426;5.444;2022-07-06T04:47:13;3.30;;;1.90;;
48613;SDS011;34408;51.426;5.444;2022-07-06T04:49:41;3.55;;;2.17;;
48613;SDS011;34408;51.426;5.444;2022-07-06T04:52:09;6.70;;;2.97;;
48613;SDS011;34408;51.426;5.444;2022-07-06T04:54:37;2.83;;;1.55;;
48613;SDS011;34408;51.426;5.444;2022-07-06T04:57:04;3.03;;;1.83;;
48613;SDS011;34408;51.426;5.444;2022-07-06T04:59:38;6.60;;;2.00;;
48613;SDS011;34408;51.426;5.444;2022-07-06T05:02:06;5.53;;;2.33;;
48613;SDS011;34408;51.426;5.444;2022-07-06T05:04:35;3.38;;;1.90;;
48613;SDS011;34408;51.426;5.444;2022-07-06T05:07:03;4.05;;;2.08;;
48613;SDS011;34408;51.426;5.444;2022-07-06T05:09:30;3.28;;;1.63;;
48613;SDS011;34408;51.426;5.444;2022-07-06T05:11:58;3.10;;;1.75;;
48613;SDS011;34408;51.426;5.444;2022-07-06T05:14:26;4.40;;;1.95;;
48613;SDS011;34408;51.426;5.444;2022-07-06T05:16:54;4.90;;;1.90;;
48613;SDS011;34408;51.426;5.444;2022-07-06T05:19:22;3.85;;;2.03;;
48613;SDS011;34408;51.426;5.444;2022-07-06T05:21:51;2.90;;;1.73;;
48613;SDS011;34408;51.426;5.444;2022-07-06T05:24:19;5.85;;;1.60;;
48613;SDS011;34408;51.426;5.444;2022-07-06T05:26:46;3.10;;;1.58;;
48613;SDS011;34408;51.426;5.444;2022-07-06T05:29:14;4.05;;;1.90;;
48613;SDS011;34408;51.426;5.444;2022-07-06T05:31:42;6.45;;;2.25;;
48613;SDS011;34408;51.426;5.444;2022-07-06T05:34:10;4.75;;;1.58;;
48613;SDS011;34408;51.426;5.444;2022-07-06T05:36:37;3.28;;;1.88;;
48613;SDS011;34408;51.426;5.444;2022-07-06T05:39:06;6.72;;;1.75;;
48613;SDS011;34408;51.426;5.444;2022-07-06T05:41:40;8.15;;;2.30;;
48613;SDS011;34408;51.426;5.444;2022-07-06T05:44:07;8.50;;;1.75;;
48613;SDS011;34408;51.426;5.444;2022-07-06T05:46:35;7.10;;;1.70;;
48613;SDS011;34408;51.426;5.444;2022-07-06T05:49:03;5.30;;;1.70;;
48613;SDS011;34408;51.426;5.444;2022-07-06T05:51:48;3.97;;;1.67;;
48613;SDS011;34408;51.426;5.444;2022-07-06T05:54:18;2.90;;;1.63;;
48613;SDS011;34408;51.426;5.444;2022-07-06T05:56:45;7.65;;;1.60;;
48613;SDS011;34408;51.426;5.444;2022-07-06T05:59:13;4.55;;;2.03;;
48613;SDS011;34408;51.426;5.444;2022-07-06T06:01:41;8.02;;;1.60;;
48613;SDS011;34408;51.426;5.444;2022-07-06T06:04:09;3.05;;;1.65;;
48613;SDS011;34408;51.426;5.444;2022-07-06T06:06:36;4.38;;;1.48;;
48613;SDS011;34408;51.426;5.444;2022-07-06T06:09:04;3.92;;;1.38;;
48613;SDS011;34408;51.426;5.444;2022-07-06T06:11:33;3.40;;;1.42;;
48613;SDS011;34408;51.426;5.444;2022-07-06T06:14:01;6.80;;;1.55;;
48613;SDS011;34408;51.426;5.444;2022-07-06T06:16:30;3.13;;;1.88;;
48613;SDS011;34408;51.426;5.444;2022-07-06T06:18:57;2.67;;;1.20;;
48613;SDS011;34408;51.426;5.444;2022-07-06T06:21:25;4.50;;;2.03;;
48613;SDS011;34408;51.426;5.444;2022-07-06T06:23:53;2.45;;;1.42;;
48613;SDS011;34408;51.426;5.444;2022-07-06T06:26:21;3.03;;;1.30;;
48613;SDS011;34408;51.426;5.444;2022-07-06T06:28:50;5.28;;;1.70;;
48613;SDS011;34408;51.426;5.444;2022-07-06T06:31:17;2.67;;;1.33;;
48613;SDS011;34408;51.426;5.444;2022-07-06T06:33:45;5.25;;;1.27;;
48613;SDS011;34408;51.426;5.444;2022-07-06T06:36:13;3.38;;;1.85;;
48613;SDS011;34408;51.426;5.444;2022-07-06T06:38:41;2.42;;;1.38;;
48613;SDS011;34408;51.426;5.444;2022-07-06T06:41:09;2.20;;;1.00;;
48613;SDS011;34408;51.426;5.444;2022-07-06T06:43:37;1.63;;;1.10;;
48613;SDS011;34408;51.426;5.444;2022-07-06T06:46:06;5.28;;;1.42;;
48613;SDS011;34408;51.426;5.444;2022-07-06T06:48:34;9.40;;;1.60;;
48613;SDS011;34408;51.426;5.444;2022-07-06T06:51:03;3.40;;;1.35;;
48613;SDS011;34408;51.426;5.444;2022-07-06T06:53:31;4.65;;;1.38;;
48613;SDS011;34408;51.426;5.444;2022-07-06T06:56:05;5.35;;;1.52;;
48613;SDS011;34408;51.426;5.444;2022-07-06T06:58:33;3.70;;;1.17;;
48613;SDS011;34408;51.426;5.444;2022-07-06T07:01:22;2.45;;;1.33;;
48613;SDS011;34408;51.426;5.444;2022-07-06T07:03:50;5.80;;;1.45;;
48613;SDS011;34408;51.426;5.444;2022-07-06T07:06:18;4.07;;;1.30;;
48613;SDS011;34408;51.426;5.444;2022-07-06T07:08:46;2.40;;;1.55;;
48613;SDS011;34408;51.426;5.444;2022-07-06T07:11:14;4.95;;;1.52;;
48613;SDS011;34408;51.426;5.444;2022-07-06T07:13:42;3.03;;;0.90;;
48613;SDS011;34408;51.426;5.444;2022-07-06T07:16:09;2.08;;;1.10;;
48613;SDS011;34408;51.426;5.444;2022-07-06T07:18:39;3.95;;;0.90;;
48613;SDS011;34408;51.426;5.444;2022-07-06T07:21:06;3.00;;;1.27;;
48613;SDS011;34408;51.426;5.444;2022-07-06T07:23:34;2.33;;;1.30;;
48613;SDS011;34408;51.426;5.444;2022-07-06T07:26:02;3.00;;;1.27;;
48613;SDS011;34408;51.426;5.444;2022-07-06T07:28:30;1.80;;;1.00;;
48613;SDS011;34408;51.426;5.444;2022-07-06T07:30:58;1.88;;;1.05;;
48613;SDS011;34408;51.426;5.444;2022-07-06T07:33:26;2.85;;;1.02;;
48613;SDS011;34408;51.426;5.444;2022-07-06T07:35:55;3.78;;;1.10;;
48613;SDS011;34408;51.426;5.444;2022-07-06T07:38:23;10.48;;;1.45;;
48613;SDS011;34408;51.426;5.444;2022-07-06T07:40:52;4.85;;;1.27;;
48613;SDS011;34408;51.426;5.444;2022-07-06T07:43:20;5.20;;;1.20;;
48613;SDS011;34408;51.426;5.444;2022-07-06T07:45:48;1.52;;;0.85;;
48613;SDS011;34408;51.426;5.444;2022-07-06T07:48:16;2.33;;;0.75;;
48613;SDS011;34408;51.426;5.444;2022-07-06T07:50:44;3.97;;;0.90;;
48613;SDS011;34408;51.426;5.444;2022-07-06T07:53:13;4.07;;;0.93;;
48613;SDS011;34408;51.426;5.444;2022-07-06T07:55:41;1.70;;;0.80;;
48613;SDS011;34408;51.426;5.444;2022-07-06T07:58:09;2.97;;;0.95;;
48613;SDS011;34408;51.426;5.444;2022-07-06T08:00:37;2.60;;;1.17;;
48613;SDS011;34408;51.426;5.444;2022-07-06T08:03:04;1.48;;;0.80;;
48613;SDS011;34408;51.426;5.444;2022-07-06T08:05:32;1.15;;;0.68;;
48613;SDS011;34408;51.426;5.444;2022-07-06T08:08:00;2.90;;;0.95;;
48613;SDS011;34408;51.426;5.444;2022-07-06T08:10:29;2.70;;;0.77;;
48613;SDS011;34408;51.426;5.444;2022-07-06T08:13:11;1.17;;;0.85;;
48613;SDS011;34408;51.426;5.444;2022-07-06T08:15:41;1.73;;;0.60;;
48613;SDS011;34408;51.426;5.444;2022-07-06T08:18:09;1.05;;;0.77;;
48613;SDS011;34408;51.426;5.444;2022-07-06T08:20:37;4.22;;;0.88;;
48613;SDS011;34408;51.426;5.444;2022-07-06T08:23:23;2.17;;;0.50;;
48613;SDS011;34408;51.426;5.444;2022-07-06T08:25:54;3.63;;;1.10;;
48613;SDS011;34408;51.426;5.444;2022-07-06T08:28:22;2.90;;;0.85;;
48613;SDS011;34408;51.426;5.444;2022-07-06T08:30:50;1.48;;;0.77;;
48613;SDS011;34408;51.426;5.444;2022-07-06T08:33:18;2.50;;;0.73;;
48613;SDS011;34408;51.426;5.444;2022-07-06T08:35:46;1.33;;;0.73;;
48613;SDS011;34408;51.426;5.444;2022-07-06T08:38:13;3.72;;;0.80;;
48613;SDS011;34408;51.426;5.444;2022-07-06T08:40:41;2.90;;;1.08;;
48613;SDS011;34408;51.426;5.444;2022-07-06T08:43:12;2.55;;;0.70;;
48613;SDS011;34408;51.426;5.444;2022-07-06T08:45:40;2.75;;;0.80;;
48613;SDS011;34408;51.426;5.444;2022-07-06T08:48:10;2.40;;;1.00;;
48613;SDS011;34408;51.426;5.444;2022-07-06T08:50:39;3.42;;;0.70;;
48613;SDS011;34408;51.426;5.444;2022-07-06T08:53:07;1.55;;;0.63;;
48613;SDS011;34408;51.426;5.444;2022-07-06T08:55:35;0.63;;;0.52;;
48613;SDS011;34408;51.426;5.444;2022-07-06T08:58:03;2.10;;;0.70;;
48613;SDS011;34408;51.426;5.444;2022-07-06T09:00:34;2.67;;;0.82;;
48613;SDS011;34408;51.426;5.444;2022-07-06T09:03:03;3.33;;;0.73;;
48613;SDS011;34408;51.426;5.444;2022-07-06T09:05:32;2.08;;;0.60;;
48613;SDS011;34408;51.426;5.444;2022-07-06T09:08:02;1.60;;;0.60;;
48613;SDS011;34408;51.426;5.444;2022-07-06T09:10:30;4.82;;;0.90;;
48613;SDS011;34408;51.426;5.444;2022-07-06T09:13:02;1.27;;;0.70;;
48613;SDS011;34408;51.426;5.444;2022-07-06T09:15:31;2.00;;;0.73;;
48613;SDS011;34408;51.426;5.444;2022-07-06T09:18:01;3.63;;;1.15;;
48613;SDS011;34408;51.426;5.444;2022-07-06T09:20:31;1.45;;;0.65;;
48613;SDS011;34408;51.426;5.444;2022-07-06T09:23:00;1.55;;;0.80;;
48613;SDS011;34408;51.426;5.444;2022-07-06T09:25:30;1.40;;;0.65;;
48613;SDS011;34408;51.426;5.444;2022-07-06T09:27:59;2.47;;;0.95;;
48613;SDS011;34408;51.426;5.444;2022-07-06T09:30:27;1.95;;;0.98;;
48613;SDS011;34408;51.426;5.444;2022-07-06T09:32:57;1.90;;;0.88;;
48613;SDS011;34408;51.426;5.444;2022-07-06T09:35:28;5.68;;;0.80;;
48613;SDS011;34408;51.426;5.444;2022-07-06T09:38:01;4.22;;;0.95;;
48613;SDS011;34408;51.426;5.444;2022-07-06T09:40:30;1.88;;;0.85;;
48613;SDS011;34408;51.426;5.444;2022-07-06T09:43:12;4.70;;;0.90;;
48613;SDS011;34408;51.426;5.444;2022-07-06T09:45:42;1.58;;;0.57;;
48613;SDS011;34408;51.426;5.444;2022-07-06T09:48:11;4.03;;;0.77;;
48613;SDS011;34408;51.426;5.444;2022-07-06T09:50:43;1.80;;;0.93;;
48613;SDS011;34408;51.426;5.444;2022-07-06T09:53:13;2.15;;;1.15;;
48613;SDS011;34408;51.426;5.444;2022-07-06T09:55:44;1.65;;;0.73;;
48613;SDS011;34408;51.426;5.444;2022-07-06T09:58:13;1.67;;;0.90;;
48613;SDS011;34408;51.426;5.444;2022-07-06T10:00:42;1.27;;;0.70;;
48613;SDS011;34408;51.426;5.444;2022-07-06T10:03:10;2.00;;;0.60;;
48613;SDS011;34408;51.426;5.444;2022-07-06T10:05:39;1.20;;;0.60;;
48613;SDS011;34408;51.426;5.444;2022-07-06T10:08:09;1.98;;;0.70;;
48613;SDS011;34408;51.426;5.444;2022-07-06T10:10:38;2.47;;;0.70;;
48613;SDS011;34408;51.426;5.444;2022-07-06T10:13:07;2.70;;;1.00;;
48613;SDS011;34408;51.426;5.444;2022-07-06T10:15:36;1.67;;;1.00;;
48613;SDS011;34408;51.426;5.444;2022-07-06T10:18:05;4.30;;;0.95;;
48613;SDS011;34408;51.426;5.444;2022-07-06T10:20:36;0.93;;;0.80;;
48613;SDS011;34408;51.426;5.444;2022-07-06T10:23:05;0.95;;;0.73;;
48613;SDS011;34408;51.426;5.444;2022-07-06T10:25:36;1.80;;;0.90;;
48613;SDS011;34408;51.426;5.444;2022-07-06T10:28:05;2.30;;;0.88;;
48613;SDS011;34408;51.426;5.444;2022-07-06T10:30:41;1.70;;;0.80;;
48613;SDS011;34408;51.426;5.444;2022-07-06T10:33:11;4.18;;;1.45;;
48613;SDS011;34408;51.426;5.444;2022-07-06T10:35:41;2.45;;;0.90;;
48613;SDS011;34408;51.426;5.444;2022-07-06T10:38:10;2.97;;;0.77;;
48613;SDS011;34408;51.426;5.444;2022-07-06T10:40:41;2.22;;;0.95;;
48613;SDS011;34408;51.426;5.444;2022-07-06T10:43:33;1.00;;;0.60;;
48613;SDS011;34408;51.426;5.444;2022-07-06T10:46:05;1.27;;;0.60;;
48613;SDS011;34408;51.426;5.444;2022-07-06T10:48:34;1.90;;;0.82;;
48613;SDS011;34408;51.426;5.444;2022-07-06T10:51:02;1.85;;;1.27;;
48613;SDS011;34408;51.426;5.444;2022-07-06T10:53:32;2.53;;;0.65;;
48613;SDS011;34408;51.426;5.444;2022-07-06T10:56:04;2.22;;;0.80;;
48613;SDS011;34408;51.426;5.444;2022-07-06T10:58:46;1.73;;;0.77;;
48613;SDS011;34408;51.426;5.444;2022-07-06T11:01:17;3.97;;;0.80;;
48613;SDS011;34408;51.426;5.444;2022-07-06T11:03:47;0.95;;;0.80;;
48613;SDS011;34408;51.426;5.444;2022-07-06T11:06:16;1.13;;;0.73;;
48613;SDS011;34408;51.426;5.444;2022-07-06T11:08:54;2.05;;;0.65;;
48613;SDS011;34408;51.426;5.444;2022-07-06T11:11:25;1.55;;;0.63;;
48613;SDS011;34408;51.426;5.444;2022-07-06T11:14:04;1.73;;;1.20;;
48613;SDS011;34408;51.426;5.444;2022-07-06T11:16:33;1.42;;;0.50;;
48613;SDS011;34408;51.426;5.444;2022-07-06T11:19:05;0.85;;;0.60;;
48613;SDS011;34408;51.426;5.444;2022-07-06T11:21:36;2.85;;;0.68;;
48613;SDS011;34408;51.426;5.444;2022-07-06T11:24:07;1.25;;;0.60;;
48613;SDS011;34408;51.426;5.444;2022-07-06T11:26:37;0.68;;;0.50;;
48613;SDS011;34408;51.426;5.444;2022-07-06T11:29:07;2.55;;;0.82;;
48613;SDS011;34408;51.426;5.444;2022-07-06T11:31:38;1.65;;;0.85;;
48613;SDS011;34408;51.426;5.444;2022-07-06T11:34:07;2.78;;;1.35;;
48613;SDS011;34408;51.426;5.444;2022-07-06T11:36:36;1.65;;;0.60;;
48613;SDS011;34408;51.426;5.444;2022-07-06T11:39:11;1.88;;;0.93;;
48613;SDS011;34408;51.426;5.444;2022-07-06T11:41:40;1.67;;;0.70;;
48613;SDS011;34408;51.426;5.444;2022-07-06T11:44:16;3.63;;;0.98;;
48613;SDS011;34408;51.426;5.444;2022-07-06T11:46:44;1.20;;;0.77;;
48613;SDS011;34408;51.426;5.444;2022-07-06T11:49:11;3.50;;;0.65;;
48613;SDS011;34408;51.426;5.444;2022-07-06T11:51:40;2.95;;;1.00;;
48613;SDS011;34408;51.426;5.444;2022-07-06T11:54:09;2.15;;;0.80;;
48613;SDS011;34408;51.426;5.444;2022-07-06T11:56:38;1.05;;;0.75;;
48613;SDS011;34408;51.426;5.444;2022-07-06T11:59:15;3.10;;;0.90;;
48613;SDS011;34408;51.426;5.444;2022-07-06T12:01:43;1.85;;;0.77;;
48613;SDS011;34408;51.426;5.444;2022-07-06T12:04:11;0.90;;;0.57;;
48613;SDS011;34408;51.426;5.444;2022-07-06T12:06:40;2.13;;;0.55;;
48613;SDS011;34408;51.426;5.444;2022-07-06T12:09:10;1.73;;;0.70;;
48613;SDS011;34408;51.426;5.444;2022-07-06T12:11:38;0.93;;;0.52;;
48613;SDS011;34408;51.426;5.444;2022-07-06T12:14:17;2.78;;;0.70;;
48613;SDS011;34408;51.426;5.444;2022-07-06T12:16:48;1.52;;;0.65;;
48613;SDS011;34408;51.426;5.444;2022-07-06T12:19:17;1.02;;;0.80;;
48613;SDS011;34408;51.426;5.444;2022-07-06T12:21:49;1.83;;;0.60;;
48613;SDS011;34408;51.426;5.444;2022-07-06T12:24:18;3.03;;;1.15;;
48613;SDS011;34408;51.426;5.444;2022-07-06T12:26:48;4.15;;;0.80;;
48613;SDS011;34408;51.426;5.444;2022-07-06T12:29:18;3.00;;;0.93;;
48613;SDS011;34408;51.426;5.444;2022-07-06T12:31:48;4.95;;;0.98;;
48613;SDS011;34408;51.426;5.444;2022-07-06T12:34:18;3.08;;;0.88;;
48613;SDS011;34408;51.426;5.444;2022-07-06T12:36:48;1.15;;;0.50;;
48613;SDS011;34408;51.426;5.444;2022-07-06T12:39:17;2.45;;;0.82;;
48613;SDS011;34408;51.426;5.444;2022-07-06T12:41:47;2.55;;;0.70;;
48613;SDS011;34408;51.426;5.444;2022-07-06T12:44:18;1.73;;;0.60;;
48613;SDS011;34408;51.426;5.444;2022-07-06T12:46:49;3.08;;;1.08;;
48613;SDS011;34408;51.426;5.444;2022-07-06T12:49:18;3.50;;;0.57;;
48613;SDS011;34408;51.426;5.444;2022-07-06T12:51:59;1.88;;;0.90;;
48613;SDS011;34408;51.426;5.444;2022-07-06T12:54:29;2.13;;;0.70;;
48613;SDS011;34408;51.426;5.444;2022-07-06T12:57:03;1.48;;;0.60;;
48613;SDS011;34408;51.426;5.444;2022-07-06T12:59:35;1.33;;;0.60;;
48613;SDS011;34408;51.426;5.444;2022-07-06T13:02:05;2.97;;;1.05;;
48613;SDS011;34408;51.426;5.444;2022-07-06T13:04:36;3.83;;;1.08;;
48613;SDS011;34408;51.426;5.444;2022-07-06T13:07:04;2.35;;;0.88;;
48613;SDS011;34408;51.426;5.444;2022-07-06T13:09:33;4.53;;;1.00;;
48613;SDS011;34408;51.426;5.444;2022-07-06T13:12:02;3.33;;;0.80;;
48613;SDS011;34408;51.426;5.444;2022-07-06T13:14:30;3.72;;;1.17;;
48613;SDS011;34408;51.426;5.444;2022-07-06T13:16:59;0.65;;;0.50;;
48613;SDS011;34408;51.426;5.444;2022-07-06T13:19:27;1.52;;;0.80;;
48613;SDS011;34408;51.426;5.444;2022-07-06T13:21:55;2.13;;;1.00;;
48613;SDS011;34408;51.426;5.444;2022-07-06T13:24:23;1.77;;;0.63;;
48613;SDS011;34408;51.426;5.444;2022-07-06T13:26:52;2.35;;;0.80;;
48613;SDS011;34408;51.426;5.444;2022-07-06T13:29:20;3.60;;;0.50;;
48613;SDS011;34408;51.426;5.444;2022-07-06T13:31:48;1.75;;;0.88;;
48613;SDS011;34408;51.426;5.444;2022-07-06T13:34:17;2.42;;;1.23;;
48613;SDS011;34408;51.426;5.444;2022-07-06T13:36:45;3.15;;;1.13;;
48613;SDS011;34408;51.426;5.444;2022-07-06T13:39:13;3.65;;;0.80;;
48613;SDS011;34408;51.426;5.444;2022-07-06T13:41:41;1.58;;;0.50;;
48613;SDS011;34408;51.426;5.444;2022-07-06T13:44:08;4.05;;;1.20;;
48613;SDS011;34408;51.426;5.444;2022-07-06T13:46:40;2.65;;;0.70;;
48613;SDS011;34408;51.426;5.444;2022-07-06T13:49:09;0.93;;;0.60;;
48613;SDS011;34408;51.426;5.444;2022-07-06T13:51:38;0.95;;;0.52;;
48613;SDS011;34408;51.426;5.444;2022-07-06T13:54:06;2.78;;;0.80;;
48613;SDS011;34408;51.426;5.444;2022-07-06T13:56:34;2.22;;;0.75;;
48613;SDS011;34408;51.426;5.444;2022-07-06T13:59:04;0.95;;;0.57;;
48613;SDS011;34408;51.426;5.444;2022-07-06T14:01:32;1.30;;;0.67;;
48613;SDS011;34408;51.426;5.444;2022-07-06T14:04:00;2.63;;;0.55;;
48613;SDS011;34408;51.426;5.444;2022-07-06T14:06:28;2.55;;;1.15;;
48613;SDS011;34408;51.426;5.444;2022-07-06T14:08:57;0.82;;;0.55;;
48613;SDS011;34408;51.426;5.444;2022-07-06T14:11:25;1.55;;;0.50;;
48613;SDS011;34408;51.426;5.444;2022-07-06T14:13:52;1.70;;;0.65;;
48613;SDS011;34408;51.426;5.444;2022-07-06T14:16:20;2.50;;;1.10;;
48613;SDS011;34408;51.426;5.444;2022-07-06T14:18:48;1.55;;;0.85;;
48613;SDS011;34408;51.426;5.444;2022-07-06T14:21:17;1.50;;;0.82;;
48613;SDS011;34408;51.426;5.444;2022-07-06T14:23:45;1.80;;;0.70;;
48613;SDS011;34408;51.426;5.444;2022-07-06T14:26:16;2.17;;;0.85;;
48613;SDS011;34408;51.426;5.444;2022-07-06T14:28:43;2.95;;;0.70;;
48613;SDS011;34408;51.426;5.444;2022-07-06T14:31:11;2.15;;;0.65;;
48613;SDS011;34408;51.426;5.444;2022-07-06T14:33:46;1.48;;;0.90;;
48613;SDS011;34408;51.426;5.444;2022-07-06T14:36:14;2.33;;;1.00;;
48613;SDS011;34408;51.426;5.444;2022-07-06T14:38:42;0.98;;;0.70;;
48613;SDS011;34408;51.426;5.444;2022-07-06T14:41:10;2.58;;;0.70;;
48613;SDS011;34408;51.426;5.444;2022-07-06T14:43:39;2.17;;;0.70;;
48613;SDS011;34408;51.426;5.444;2022-07-06T14:46:07;1.88;;;0.88;;
48613;SDS011;34408;51.426;5.444;2022-07-06T14:48:35;3.03;;;1.20;;
48613;SDS011;34408;51.426;5.444;2022-07-06T14:51:03;3.13;;;0.75;;
48613;SDS011;34408;51.426;5.444;2022-07-06T14:53:30;2.13;;;1.05;;
48613;SDS011;34408;51.426;5.444;2022-07-06T14:55:58;4.30;;;0.80;;
48613;SDS011;34408;51.426;5.444;2022-07-06T14:58:26;3.13;;;0.85;;